Share

Austinville, IA (50608)

Jensen Farm (KIAIOWAF2) Elev 1142 ft | 42.50 °N, 93.20 °W | Change Station

Current weather conditions updated 3 seconds ago

Clear
Clear
27.8 °F
Feels Like 28 °F
N
2.0
Wind Variable Wind from ENE
Gusts 2.0 mph
Sunrise 6:25 AM
Sunset 7:57 PM
Moon Waning Gibbous

Today is forecast to be Much Warmer than yesterday.

Pressure 30.32 in
Visibility 7.0 miles
Clouds Clear
Windchill 28 °F
Dew Point 26 °F
Humidity 94%
Rainfall 0.00 in
Snow Depth Not available.
UV 0 out of 16
Pollen 9.70 out of 12
Air Quality Not available.
Flu Activity Sporadic
METAR KIFA 180955Z AUTO 00000KT 7SM CLR M01/M02 A3032 RMK AO2 T10121023

More Conditions Fewer Conditions

Pressure 30.32 in
Visibility 7.0 miles
Clouds Clear
Windchill 28 °F
Dew Point 26 °F
Humidity 94%
Rainfall 0.00 in
Snow Depth Not available.
UV 0 out of 16
Pollen 9.70 out of 12
Air Quality Not available.
Flu Activity Sporadic
METAR KIFA 180955Z AUTO 00000KT 7SM CLR M01/M02 A3032 RMK AO2 T10121023

More Conditions Fewer Conditions

10-Day Forecast

Almanac

Astronomy

Apr. 18, 2014 Rise Set
Actual Time 6:25 AM CDT 7:57 PM CDT
Civil Twilight 5:56 AM CDT 8:26 PM CDT
Nautical Twilight 5:20 AM CDT 9:02 PM CDT
Astronomical Twilight 4:42 AM CDT 9:40 PM CDT
Moon 11:46 PM CDT 8:45 AM CDT
Length of Visible Light 14h 30m
Length of Day
13h 31m
Tomorrow will be 2m 43s longer.
Waning Gibbous, 89% of the Moon is Illuminated
Today
Waning Gibbous
Apr 22
Last Quarter
Apr 29
New
May 6
First Quarter
May 14
Full

Today's Extremes

State Highs State Lows

Community

  • SUNRISE THROUGH THE TREES.
    SUNRISE THROUGH THE TREES.
  • Dog Wood Blossoms
    Dog Wood Blossoms
  • Morning Light
    Morning Light
  • New Day
    New Day
  • Lake Michigan Sunrise
    Lake Michigan Sunrise

WunderPhotos

Upload Photos

1,702,300 photos uploaded!

WunderBlogs® & News

Nearby

Snow Depth

Station Depth Elevation
No new snow has been reported.

Coastal Water Temperatures

Place Temperature
No Stations Reporting

Earthquake Activity

City Distance Mag. Time & Date
No recent earthquake activity has been reported nearby.
Minimum magnitude displayed is 2.5.

Nearby Weather Stations

Station Location Temp. Windchill Dew Point Humidity Wind Precip. Elev Updated Type
Jensen Farm, Iowa Falls, IA 27.8 °F 28 °F 26 °F 94% ENE  at  2.0 mph 0.00 in / hr 1142 ft 5:14 AM CDT Rapid Fire
MesoWest ARGON , Bradford, IA 25 °F 25 °F - - North  at  - 0.00 in / hr 1198 ft 4:10 AM CDT MADIS
Meyer Agri-Air, Wellsburg, IA 29.7 °F 25 °F 28 °F 92% NE  at  4.0 mph 0.00 in / hr 1106 ft 5:06 AM CDT Normal
Beeds Addition, Hampton, IA 28.6 °F 29 °F 29 °F 100% ESE  at  0.7 mph 0.00 in / hr 1135 ft 5:14 AM CDT Rapid Fire

Show More Stations Show Fewer Stations

What do you think?

We're not finished. Please let us know what you like, what you don't like, and what you are still missing.